Time;durP1;ratioP1;P1;durP2;ratioP2;P2;SDS_P1;SDS_P2;PMS_P1;PMS_P2;Temp;Humidity;BMP_temperature;BMP_pressure;BME280_temperature;BME280_humidity;BME280_pressure;Samples;Min_cycle;Max_cycle;Signal;HPM_P1;HPM_P2
2022/09/09 00:01:40;;;;;;;;;;;;;;;28.75;33.46;101012.50;5056221;28;1198;-40
2022/09/09 00:04:11;;;;;;;;;;;;;;;28.73;33.37;101016.25;5056728;28;965;-39
2022/09/09 00:06:44;;;;;;;;;;;;;;;28.74;33.23;101011.69;5044912;28;1902;-38
2022/09/09 00:09:19;;;;;;;;;;;;;;;28.71;33.43;101014.75;5037996;28;1072;-39
2022/09/09 00:12:10;;;;;;;;;;;;;;;28.65;33.16;101008.22;5051335;28;1021;-37
2022/09/09 00:14:42;;;;;;;;;;;;;;;28.68;33.33;101005.13;5041528;28;1437;-39
2022/09/09 00:17:09;;;;;;;;;;;;;;;28.66;33.31;100996.34;5043965;28;993;-39
2022/09/09 00:19:37;;;;;;;;;;;;;;;28.71;33.49;100993.94;5050220;28;1041;-39
2022/09/09 00:22:05;;;;;;;;;;;;;;;28.71;33.00;100996.63;5049439;28;1017;-39
2022/09/09 00:24:40;;;;;;;;;;;;;;;28.72;33.29;100994.78;5055860;28;1012;-39
2022/09/09 00:27:14;;;;;;;;;;;;;;;28.71;33.22;100998.53;5055399;28;1918;-38
2022/09/09 00:29:44;;;;;;;;;;;;;;;28.69;33.17;100998.72;5043509;28;1145;-38
2022/09/09 00:32:13;;;;;;;;;;;;;;;28.70;33.25;100994.97;5054114;28;1061;-39
2022/09/09 00:34:46;;;;;;;;;;;;;;;28.68;32.85;100996.16;5054841;28;1254;-39
2022/09/09 00:37:11;;;;;;;;;;;;;;;28.69;33.02;100998.72;5046204;28;1042;-38
2022/09/09 00:39:37;;;;;;;;;;;;;;;28.72;32.97;101000.19;5044435;28;1005;-39
2022/09/09 00:42:13;;;;;;;;;;;;;;;28.67;33.22;100998.06;5036730;28;999;-39
2022/09/09 00:44:39;;;;;;;;;;;;;;;28.65;32.83;100997.41;5045606;28;1049;-39
2022/09/09 00:47:13;;;;;;;;;;;;;;;28.63;33.02;100988.63;5047672;28;1965;-39
2022/09/09 00:49:39;;;;;;;;;;;;;;;28.65;33.38;100988.44;5053081;28;1001;-39
2022/09/09 00:52:26;;;;;;;;;;;;;;;28.67;33.41;100980.97;5040152;28;978;-40
2022/09/09 00:54:58;;;;;;;;;;;;;;;28.64;33.17;100976.78;5047171;28;1199;-39
2022/09/09 00:57:23;;;;;;;;;;;;;;;28.64;33.34;100973.22;5043422;28;1041;-39
2022/09/09 00:59:49;;;;;;;;;;;;;;;28.62;33.08;100972.56;5056023;28;1112;-39
2022/09/09 01:02:32;;;;;;;;;;;;;;;28.59;33.36;100974.63;5036662;28;981;-39
2022/09/09 01:05:00;;;;;;;;;;;;;;;28.64;33.05;100981.34;5042825;28;1021;-38
2022/09/09 01:07:25;;;;;;;;;;;;;;;28.59;32.72;100979.22;5045442;28;1976;-39
2022/09/09 01:09:55;;;;;;;;;;;;;;;28.64;33.11;100975.94;5051631;28;1060;-39
2022/09/09 01:12:25;;;;;;;;;;;;;;;28.62;33.06;100975.28;5047555;28;1163;-39
2022/09/09 01:15:10;;;;;;;;;;;;;;;28.60;33.03;100973.59;5049550;28;1190;-40
2022/09/09 01:17:50;;;;;;;;;;;;;;;28.63;32.97;100982.38;5045058;28;862;-38
2022/09/09 01:20:55;;;;;;;;;;;;;;;28.62;33.21;100986.09;5053893;28;1270;-39
2022/09/09 01:23:39;;;;;;;;;;;;;;;28.61;32.98;100988.00;4974991;28;1170;-39
2022/09/09 01:26:15;;;;;;;;;;;;;;;28.59;32.64;100987.31;4975340;28;1973;-39
2022/09/09 01:28:42;;;;;;;;;;;;;;;28.62;33.15;100983.38;5022575;28;1132;-39
2022/09/09 01:31:08;;;;;;;;;;;;;;;28.61;33.16;100982.56;5049369;28;1198;-41
2022/09/09 01:33:33;;;;;;;;;;;;;;;28.55;33.10;100981.44;5054253;28;1171;-41
2022/09/09 01:36:03;;;;;;;;;;;;;;;28.56;32.85;100972.28;5049279;28;954;-39
2022/09/09 01:38:29;;;;;;;;;;;;;;;28.64;32.96;100982.19;5043400;28;973;-39
2022/09/09 01:40:54;;;;;;;;;;;;;;;28.62;32.85;100981.53;5050553;28;1036;-39
2022/09/09 01:43:20;;;;;;;;;;;;;;;28.62;33.14;100977.97;5045332;28;1076;-39
2022/09/09 01:45:45;;;;;;;;;;;;;;;28.59;32.70;100979.22;5051394;28;985;-39
2022/09/09 01:48:10;;;;;;;;;;;;;;;28.55;33.07;100977.88;5048554;28;1975;-39
2022/09/09 01:50:36;;;;;;;;;;;;;;;28.56;32.94;100972.28;5051934;28;1068;-39
2022/09/09 01:53:01;;;;;;;;;;;;;;;28.59;33.01;100973.78;5053041;28;992;-35
2022/09/09 01:55:39;;;;;;;;;;;;;;;28.57;33.07;100970.44;5051735;28;1239;-39
2022/09/09 01:58:04;;;;;;;;;;;;;;;28.57;32.81;100968.56;5054584;28;1091;-39
2022/09/09 02:00:31;;;;;;;;;;;;;;;28.56;33.08;100977.69;5049935;28;1195;-39
2022/09/09 02:03:11;;;;;;;;;;;;;;;28.51;32.79;100969.28;5048746;28;945;-38
2022/09/09 02:05:37;;;;;;;;;;;;;;;28.53;32.83;100982.66;5041389;28;1215;-38
2022/09/09 02:08:06;;;;;;;;;;;;;;;28.55;32.79;100983.31;5050567;28;1965;-39
2022/09/09 02:10:50;;;;;;;;;;;;;;;28.52;32.90;100983.69;5046498;28;1226;-39
2022/09/09 02:13:18;;;;;;;;;;;;;;;28.55;32.79;100978.72;5042381;28;993;-40
2022/09/09 02:15:49;;;;;;;;;;;;;;;28.51;32.96;100980.13;5047503;28;1204;-39
2022/09/09 02:18:15;;;;;;;;;;;;;;;28.54;32.82;100981.63;5051183;28;865;-39
2022/09/09 02:20:40;;;;;;;;;;;;;;;28.56;32.87;100980.41;5038722;28;1085;-37
2022/09/09 02:23:06;;;;;;;;;;;;;;;28.47;32.76;100976.97;5054517;28;989;-39
2022/09/09 02:25:32;;;;;;;;;;;;;;;28.52;32.71;100981.81;5053163;28;1154;-40
2022/09/09 02:28:01;;;;;;;;;;;;;;;28.30;32.84;100978.97;5048581;28;1967;-39
2022/09/09 02:30:27;;;;;;;;;;;;;;;28.30;32.86;100980.84;5052840;28;916;-40
2022/09/09 02:32:52;;;;;;;;;;;;;;;28.40;33.11;100988.72;5051955;28;1116;-39
2022/09/09 02:35:20;;;;;;;;;;;;;;;28.42;32.80;100982.09;5047682;28;1059;-39
2022/09/09 02:37:49;;;;;;;;;;;;;;;28.47;32.58;100982.38;5034727;28;1029;-40
2022/09/09 02:40:17;;;;;;;;;;;;;;;28.36;32.38;100980.16;5044170;28;1070;-39
2022/09/09 02:42:43;;;;;;;;;;;;;;;28.39;32.55;100979.78;5048048;28;900;-38
2022/09/09 02:45:09;;;;;;;;;;;;;;;28.36;32.96;100980.97;5045949;28;1190;-38
2022/09/09 02:47:36;;;;;;;;;;;;;;;28.40;32.25;100978.72;5050892;28;1969;-39
2022/09/09 02:50:07;;;;;;;;;;;;;;;28.44;33.03;100976.50;5044187;28;1212;-39
2022/09/09 02:52:36;;;;;;;;;;;;;;;28.46;32.71;100979.88;5042374;28;1060;-39
2022/09/09 02:55:07;;;;;;;;;;;;;;;28.26;32.66;100980.38;5041170;28;925;-38
2022/09/09 02:57:32;;;;;;;;;;;;;;;28.34;32.51;100974.06;5042686;28;1009;-39
2022/09/09 02:59:58;;;;;;;;;;;;;;;28.34;32.33;100980.31;5051892;28;1180;-38
2022/09/09 03:02:25;;;;;;;;;;;;;;;28.29;32.69;100976.47;5055650;28;1001;-39
2022/09/09 03:04:51;;;;;;;;;;;;;;;28.39;32.75;100974.38;5045083;28;1441;-39
2022/09/09 03:07:17;;;;;;;;;;;;;;;28.40;32.49;100976.03;5043598;28;1957;-38
2022/09/09 03:09:42;;;;;;;;;;;;;;;28.41;32.84;100975.00;5052983;28;1079;-37
2022/09/09 03:12:08;;;;;;;;;;;;;;;28.40;32.94;100975.19;5050300;28;1024;-41
2022/09/09 03:14:33;;;;;;;;;;;;;;;27.74;34.53;100972.91;5051095;28;1000;-42
2022/09/09 03:17:00;;;;;;;;;;;;;;;27.47;35.93;100980.53;5044759;28;1016;-44
2022/09/09 03:19:26;;;;;;;;;;;;;;;27.39;36.23;100976.00;5049096;28;1042;-43
2022/09/09 03:21:51;;;;;;;;;;;;;;;27.32;37.02;100980.47;5045036;28;1008;-43
2022/09/09 03:24:16;;;;;;;;;;;;;;;27.31;36.92;100981.47;5055283;28;1136;-43
2022/09/09 03:26:44;;;;;;;;;;;;;;;27.12;37.36;100977.38;5051916;28;1992;-43
2022/09/09 03:29:10;;;;;;;;;;;;;;;27.13;37.20;100982.59;5054982;28;1088;-43
2022/09/09 03:31:36;;;;;;;;;;;;;;;26.98;37.60;100977.06;5044102;28;1171;-43
2022/09/09 03:34:01;;;;;;;;;;;;;;;26.82;37.94;100975.31;5057816;28;1049;-43
2022/09/09 03:36:27;;;;;;;;;;;;;;;26.80;37.89;100979.19;5056114;28;1206;-43
2022/09/09 03:38:54;;;;;;;;;;;;;;;26.72;38.58;100978.22;5057525;28;1135;-44
2022/09/09 03:41:20;;;;;;;;;;;;;;;26.75;38.53;100974.31;5049231;28;965;-43
2022/09/09 03:43:46;;;;;;;;;;;;;;;26.81;38.30;100983.56;5043872;28;899;-42
2022/09/09 03:46:11;;;;;;;;;;;;;;;26.84;38.82;100981.34;5050850;28;1965;-42
2022/09/09 03:48:36;;;;;;;;;;;;;;;26.80;38.97;100981.88;5047902;28;1132;-43
2022/09/09 03:51:02;;;;;;;;;;;;;;;26.76;39.47;100987.63;5053476;28;973;-44
2022/09/09 03:53:28;;;;;;;;;;;;;;;26.81;38.77;100980.88;5051645;28;1224;-43
2022/09/09 03:55:54;;;;;;;;;;;;;;;26.71;39.25;100984.59;5044412;28;845;-43
2022/09/09 03:58:20;;;;;;;;;;;;;;;26.69;39.40;100978.56;5056629;28;997;-43
2022/09/09 04:00:58;;;;;;;;;;;;;;;26.59;39.50;100977.91;5054765;28;890;-43
2022/09/09 04:03:24;;;;;;;;;;;;;;;27.05;38.82;100974.53;5050588;28;1230;-43
2022/09/09 04:05:50;;;;;;;;;;;;;;;27.22;37.80;100987.94;5042841;28;1001;-42
2022/09/09 04:08:15;;;;;;;;;;;;;;;27.53;37.66;100975.44;5050619;28;1890;-43
2022/09/09 04:10:41;;;;;;;;;;;;;;;27.60;37.26;100977.22;5057206;28;1087;-43
2022/09/09 04:13:07;;;;;;;;;;;;;;;27.40;37.50;100982.25;5057008;28;981;-42
2022/09/09 04:15:33;;;;;;;;;;;;;;;27.07;38.48;100985.16;5051688;28;1013;-42
2022/09/09 04:17:58;;;;;;;;;;;;;;;26.77;38.81;100980.38;5050137;28;970;-42
2022/09/09 04:20:23;;;;;;;;;;;;;;;26.82;38.89;100986.09;5051179;28;1164;-43
2022/09/09 04:22:48;;;;;;;;;;;;;;;26.76;39.34;100979.53;5056752;28;1048;-43
2022/09/09 04:25:14;;;;;;;;;;;;;;;26.73;39.08;100985.28;5056863;28;1136;-42
2022/09/09 04:27:39;;;;;;;;;;;;;;;26.72;39.30;100982.75;5047489;28;1977;-42
2022/09/09 04:30:05;;;;;;;;;;;;;;;26.72;39.23;100980.06;5047484;28;1329;-42
2022/09/09 04:32:32;;;;;;;;;;;;;;;26.75;39.36;100991.34;5055584;28;1012;-42
2022/09/09 04:34:58;;;;;;;;;;;;;;;26.76;39.58;100995.72;5057278;28;1159;-42
2022/09/09 04:37:24;;;;;;;;;;;;;;;26.81;39.47;100995.19;5051632;28;1036;-43
2022/09/09 04:39:50;;;;;;;;;;;;;;;26.90;38.96;100993.31;5056654;28;1175;-43
2022/09/09 04:42:16;;;;;;;;;;;;;;;26.98;39.09;100989.72;5054696;28;770;-42
2022/09/09 04:44:41;;;;;;;;;;;;;;;26.99;39.08;100988.72;5051943;28;1084;-42
2022/09/09 04:47:07;;;;;;;;;;;;;;;26.98;39.38;100992.41;5056424;28;1997;-41
2022/09/09 04:49:32;;;;;;;;;;;;;;;26.96;39.25;100987.19;5056868;28;1048;-42
2022/09/09 04:51:57;;;;;;;;;;;;;;;27.06;39.39;100980.78;5056922;28;1163;-42
2022/09/09 04:54:22;;;;;;;;;;;;;;;27.09;39.51;100977.72;5045154;28;1386;-43
2022/09/09 04:56:50;;;;;;;;;;;;;;;27.05;39.95;100990.75;5053703;28;1541;-42
2022/09/09 04:59:15;;;;;;;;;;;;;;;26.96;40.10;100989.09;5049430;28;1454;-42
2022/09/09 05:01:40;;;;;;;;;;;;;;;26.81;40.17;100995.19;5051393;28;1143;-42
2022/09/09 05:04:06;;;;;;;;;;;;;;;26.74;40.62;100994.22;5056431;28;1071;-42
2022/09/09 05:06:31;;;;;;;;;;;;;;;26.98;39.71;100992.41;5056519;28;1985;-43
2022/09/09 05:08:57;;;;;;;;;;;;;;;26.96;40.30;100998.00;5055682;28;982;-42
2022/09/09 05:11:24;;;;;;;;;;;;;;;26.80;40.41;100996.22;5056378;28;1025;-43
2022/09/09 05:13:50;;;;;;;;;;;;;;;26.63;40.78;100995.44;5053710;28;1012;-42
2022/09/09 05:16:15;;;;;;;;;;;;;;;26.92;40.57;100991.28;5055704;28;1079;-42
2022/09/09 05:18:42;;;;;;;;;;;;;;;26.90;40.30;100987.91;5055626;28;1549;-42
2022/09/09 05:21:07;;;;;;;;;;;;;;;27.09;39.75;100992.06;5056222;28;981;-42
2022/09/09 05:23:33;;;;;;;;;;;;;;;27.22;39.81;100987.94;5049978;28;973;-42
2022/09/09 05:25:59;;;;;;;;;;;;;;;26.95;40.12;100988.22;5055424;28;1147;-42
2022/09/09 05:28:25;;;;;;;;;;;;;;;27.09;40.31;100983.13;5050300;28;1905;-42
2022/09/09 05:31:20;;;;;;;;;;;;;;;27.11;39.90;100983.81;5055780;28;1123;-42
2022/09/09 05:33:46;;;;;;;;;;;;;;;27.00;40.39;100976.91;5038555;28;1409;-43
2022/09/09 05:36:15;;;;;;;;;;;;;;;26.86;40.96;100978.50;5055470;28;1072;-42
2022/09/09 05:38:40;;;;;;;;;;;;;;;27.16;40.51;100981.38;5044813;28;1111;-42
2022/09/09 05:41:05;;;;;;;;;;;;;;;27.10;40.92;100977.56;5055014;28;1011;-42
2022/09/09 05:43:32;;;;;;;;;;;;;;;27.35;40.54;100966.59;5050969;28;1214;-42
2022/09/09 05:46:07;;;;;;;;;;;;;;;27.25;40.29;100974.09;5043907;28;954;-42
2022/09/09 05:48:33;;;;;;;;;;;;;;;27.37;40.23;100967.25;5048565;28;1898;-43
2022/09/09 05:50:59;;;;;;;;;;;;;;;27.25;40.70;100969.53;5051004;28;1136;-42
2022/09/09 05:53:25;;;;;;;;;;;;;;;27.32;40.31;100966.97;5055528;28;1033;-42
2022/09/09 05:55:50;;;;;;;;;;;;;;;27.39;40.57;100969.78;5046817;28;1024;-42
2022/09/09 05:58:17;;;;;;;;;;;;;;;27.02;41.94;100969.50;5055881;28;958;-42
2022/09/09 06:00:43;;;;;;;;;;;;;;;27.16;41.42;100970.59;5050204;28;1020;-42
2022/09/09 06:03:12;;;;;;;;;;;;;;;27.20;40.92;100971.06;5055522;28;1107;-42
2022/09/09 06:05:38;;;;;;;;;;;;;;;27.21;40.70;100973.59;5052616;28;1005;-42
2022/09/09 06:08:03;;;;;;;;;;;;;;;27.45;40.96;100969.06;5055027;28;1976;-42
2022/09/09 06:10:28;;;;;;;;;;;;;;;27.36;40.69;100967.44;5055579;28;989;-42
2022/09/09 06:12:54;;;;;;;;;;;;;;;27.52;39.60;100961.06;5055254;28;1447;-43
2022/09/09 06:15:19;;;;;;;;;;;;;;;27.59;39.42;100962.00;5043450;28;965;-42
2022/09/09 06:17:45;;;;;;;;;;;;;;;27.57;39.84;100968.63;5050767;28;1180;-42
2022/09/09 06:20:10;;;;;;;;;;;;;;;27.04;42.14;100966.63;5043021;28;1238;-43
2022/09/09 06:22:35;;;;;;;;;;;;;;;26.94;43.13;100969.50;5038259;28;1017;-42
2022/09/09 06:25:01;;;;;;;;;;;;;;;27.16;42.74;100981.38;5039617;28;1142;-42
2022/09/09 06:27:27;;;;;;;;;;;;;;;27.47;41.24;100971.56;5044001;28;1902;-41
2022/09/09 06:29:52;;;;;;;;;;;;;;;27.68;38.59;100975.47;5040423;28;1263;-42
2022/09/09 06:32:17;;;;;;;;;;;;;;;27.76;39.29;100975.41;5050544;28;1045;-42
2022/09/09 06:34:45;;;;;;;;;;;;;;;27.75;40.04;100980.00;5050010;28;1255;-43
2022/09/09 06:37:10;;;;;;;;;;;;;;;27.76;39.76;100980.81;5053350;28;1325;-42
2022/09/09 06:39:35;;;;;;;;;;;;;;;27.81;39.75;100985.72;5055367;28;1359;-42
2022/09/09 06:42:01;;;;;;;;;;;;;;;27.87;39.59;100991.22;5056664;28;1329;-42
2022/09/09 06:44:31;;;;;;;;;;;;;;;27.89;39.24;100993.75;5053112;28;1403;-42
2022/09/09 06:46:57;;;;;;;;;;;;;;;27.85;39.55;100995.97;5050334;28;1890;-42
2022/09/09 06:49:22;;;;;;;;;;;;;;;27.94;39.13;100991.34;5057042;28;1285;-42
2022/09/09 06:51:47;;;;;;;;;;;;;;;28.06;39.09;100993.59;5056527;28;1364;-42
2022/09/09 06:54:12;;;;;;;;;;;;;;;28.13;38.63;100999.94;5049894;28;1266;-44
2022/09/09 06:56:40;;;;;;;;;;;;;;;28.39;37.90;100996.00;5053871;28;1191;-43
2022/09/09 06:59:05;;;;;;;;;;;;;;;28.51;37.52;100993.66;5051673;28;1425;-43
2022/09/09 07:01:32;;;;;;;;;;;;;;;28.46;37.38;100985.28;5058772;28;965;-43
2022/09/09 07:03:58;;;;;;;;;;;;;;;27.35;38.16;100977.41;5045123;28;1154;-43
2022/09/09 07:06:30;;;;;;;;;;;;;;;28.00;36.86;100978.94;5048912;28;1961;-43
2022/09/09 07:08:59;;;;;;;;;;;;;;;28.29;36.52;100981.88;5051077;28;1251;-42
2022/09/09 07:11:26;;;;;;;;;;;;;;;28.09;34.18;100987.81;5058410;28;1044;-42
2022/09/09 07:13:52;;;;;;;;;;;;;;;28.06;32.66;101001.72;5049917;28;1222;-42
2022/09/09 07:16:17;;;;;;;;;;;;;;;28.20;32.67;100995.47;5045483;28;1528;-42
2022/09/09 07:18:43;;;;;;;;;;;;;;;28.58;33.68;100991.88;5056247;28;1024;-42
2022/09/09 07:21:09;;;;;;;;;;;;;;;28.63;34.80;100994.03;5047807;28;774;-42
2022/09/09 07:23:35;;;;;;;;;;;;;;;28.78;34.84;100999.44;5054898;28;1354;-43
2022/09/09 07:26:01;;;;;;;;;;;;;;;29.00;34.97;100996.81;5048125;28;1135;-43
2022/09/09 07:28:27;;;;;;;;;;;;;;;29.13;35.48;100992.59;5042253;28;1963;-43
2022/09/09 07:30:56;;;;;;;;;;;;;;;29.13;35.44;100985.28;5057690;28;981;-43
2022/09/09 07:33:22;;;;;;;;;;;;;;;29.16;35.82;100987.63;5052140;28;1195;-42
2022/09/09 07:35:47;;;;;;;;;;;;;;;29.16;35.23;100997.63;5050483;28;1238;-42
2022/09/09 07:38:13;;;;;;;;;;;;;;;29.17;35.39;100994.72;5054135;28;1207;-42
2022/09/09 07:40:39;;;;;;;;;;;;;;;29.21;34.39;101004.13;5052465;28;915;-42
2022/09/09 07:43:04;;;;;;;;;;;;;;;29.33;34.78;101003.63;5057669;28;1038;-42
2022/09/09 07:45:32;;;;;;;;;;;;;;;29.40;31.89;101014.53;5043336;28;1154;-43
2022/09/09 07:47:57;;;;;;;;;;;;;;;29.48;31.23;101002.75;5043175;28;1961;-43
2022/09/09 07:50:23;;;;;;;;;;;;;;;29.57;29.70;101007.84;5048920;28;1161;-43
2022/09/09 07:52:49;;;;;;;;;;;;;;;29.70;30.03;101009.03;5046072;28;1226;-43
2022/09/09 07:55:14;;;;;;;;;;;;;;;29.47;29.83;101010.03;5051755;28;954;-42
2022/09/09 07:57:40;;;;;;;;;;;;;;;29.63;29.91;101014.38;5049105;28;825;-42
2022/09/09 08:00:05;;;;;;;;;;;;;;;29.69;29.22;100997.38;5048042;28;1079;-42
2022/09/09 08:02:31;;;;;;;;;;;;;;;29.76;29.66;101007.44;5048467;28;1017;-43
2022/09/09 08:04:56;;;;;;;;;;;;;;;29.67;29.80;101004.00;5057034;28;1466;-42
2022/09/09 08:07:22;;;;;;;;;;;;;;;29.93;28.55;101006.09;5048703;28;1967;-43
2022/09/09 08:09:47;;;;;;;;;;;;;;;29.56;29.03;100999.94;5052814;28;1007;-43
2022/09/09 08:12:12;;;;;;;;;;;;;;;29.45;28.95;100988.56;5055667;28;1274;-39
2022/09/09 08:14:38;;;;;;;;;;;;;;;29.75;29.01;100986.75;5053581;28;1080;-40
2022/09/09 08:17:04;;;;;;;;;;;;;;;29.50;30.14;100982.56;5048975;28;1201;-40
2022/09/09 08:19:30;;;;;;;;;;;;;;;29.46;30.33;100963.13;5050416;28;1232;-38
2022/09/09 08:21:56;;;;;;;;;;;;;;;29.56;30.17;100970.09;5042212;28;1228;-42
2022/09/09 08:24:23;;;;;;;;;;;;;;;29.45;30.60;100966.88;5046589;28;1215;-40
2022/09/09 08:26:51;;;;;;;;;;;;;;;29.52;30.63;100963.38;5048845;28;1906;-40
2022/09/09 08:29:16;;;;;;;;;;;;;;;29.40;30.73;100954.94;5056711;28;1059;-40
2022/09/09 08:31:42;;;;;;;;;;;;;;;29.37;30.70;100953.47;5056621;28;1139;-39
2022/09/09 08:34:09;;;;;;;;;;;;;;;29.40;30.97;100941.38;5052337;28;1002;-40
2022/09/09 08:36:35;;;;;;;;;;;;;;;29.45;31.08;100941.63;5045729;28;1174;-40
2022/09/09 08:39:01;;;;;;;;;;;;;;;29.42;30.74;100933.91;5046049;28;1262;-41
2022/09/09 08:41:26;;;;;;;;;;;;;;;29.42;30.62;100956.44;5043236;28;1494;-40
2022/09/09 08:43:52;;;;;;;;;;;;;;;29.45;31.05;100944.34;5052561;28;1164;-39
2022/09/09 08:46:23;;;;;;;;;;;;;;;29.40;31.26;100941.38;5040220;28;1898;-42
2022/09/09 08:48:56;;;;;;;;;;;;;;;29.45;31.41;100936.22;5052107;28;1029;-41
2022/09/09 08:51:21;;;;;;;;;;;;;;;29.33;31.57;100934.03;5048610;28;1092;-40
2022/09/09 08:53:48;;;;;;;;;;;;;;;29.42;31.73;100934.75;5043382;28;1384;-39
2022/09/09 08:56:14;;;;;;;;;;;;;;;29.46;31.65;100929.78;5047432;28;1489;-42
2022/09/09 08:58:48;;;;;;;;;;;;;;;29.49;31.74;100934.81;5043039;28;1061;-39
2022/09/09 09:01:26;;;;;;;;;;;;;;;29.49;31.65;100929.38;5051052;28;1017;-40
2022/09/09 09:03:54;;;;;;;;;;;;;;;29.50;31.70;100927.50;5056174;28;1012;-40
2022/09/09 09:06:28;;;;;;;;;;;;;;;29.55;31.34;100925.03;5055034;28;1898;-42
2022/09/09 09:09:02;;;;;;;;;;;;;;;29.45;31.72;100925.38;5051735;28;987;-39
2022/09/09 09:11:34;;;;;;;;;;;;;;;29.48;31.76;100930.41;5048654;28;1052;-39
2022/09/09 09:14:02;;;;;;;;;;;;;;;29.50;32.16;100928.34;5050366;28;1009;-42
2022/09/09 09:16:44;;;;;;;;;;;;;;;29.59;31.81;100929.09;5056159;28;1056;-42
2022/09/09 09:19:11;;;;;;;;;;;;;;;29.43;31.71;100922.00;5055772;28;1143;-40
2022/09/09 09:21:46;;;;;;;;;;;;;;;29.50;32.32;100928.34;5053899;28;903;-43
2022/09/09 09:24:15;;;;;;;;;;;;;;;29.43;31.77;100928.28;5055779;28;1055;-40
2022/09/09 09:26:40;;;;;;;;;;;;;;;29.44;32.07;100932.69;5052994;28;1959;-41
2022/09/09 09:29:11;;;;;;;;;;;;;;;29.47;32.07;100942.28;5042020;28;1302;-42
2022/09/09 09:31:37;;;;;;;;;;;;;;;29.42;32.94;100934.75;5045774;28;1230;-42
2022/09/09 09:34:02;;;;;;;;;;;;;;;29.40;32.90;100928.69;5042436;28;1258;-40
2022/09/09 09:36:34;;;;;;;;;;;;;;;29.43;32.57;100936.41;5042448;28;1314;-42
2022/09/09 09:39:00;;;;;;;;;;;;;;;29.45;32.87;100934.34;5044078;28;1207;-40
2022/09/09 09:41:35;;;;;;;;;;;;;;;29.47;32.66;100942.28;5048135;28;1195;-41
2022/09/09 09:44:01;;;;;;;;;;;;;;;29.49;32.50;100944.81;5039735;28;955;-40
2022/09/09 09:46:26;;;;;;;;;;;;;;;29.53;33.20;100948.81;5052481;28;1961;-40
2022/09/09 09:49:02;;;;;;;;;;;;;;;29.55;32.52;100939.44;5055930;28;1032;-42
2022/09/09 09:51:28;;;;;;;;;;;;;;;29.54;32.78;100924.22;5050761;28;1247;-40
2022/09/09 09:53:53;;;;;;;;;;;;;;;29.54;32.59;100924.22;5039232;28;1256;-40
2022/09/09 09:56:26;;;;;;;;;;;;;;;29.51;32.63;100921.06;5051387;28;989;-40
2022/09/09 09:58:51;;;;;;;;;;;;;;;29.60;32.97;100919.91;5047920;28;1001;-40
2022/09/09 10:01:24;;;;;;;;;;;;;;;29.55;32.43;100916.91;5052244;28;1115;-42
2022/09/09 10:03:53;;;;;;;;;;;;;;;29.52;32.76;100917.31;5055162;28;997;-40
2022/09/09 10:06:39;;;;;;;;;;;;;;;29.48;32.84;100921.47;5055690;28;1898;-40
2022/09/09 10:09:25;;;;;;;;;;;;;;;29.62;32.78;100923.28;5055271;28;1610;-40
2022/09/09 10:11:53;;;;;;;;;;;;;;;29.66;33.15;100921.81;5036554;28;1217;-42
2022/09/09 10:14:24;;;;;;;;;;;;;;;29.69;32.95;100918.75;5049412;28;1048;-42
2022/09/09 10:16:58;;;;;;;;;;;;;;;29.68;33.08;100927.06;5052890;28;1111;-40
2022/09/09 10:19:33;;;;;;;;;;;;;;;29.53;32.74;100916.28;5053844;28;1235;-40
2022/09/09 10:21:59;;;;;;;;;;;;;;;29.58;33.16;100914.66;5054545;28;1278;-39
2022/09/09 10:24:27;;;;;;;;;;;;;;;29.50;33.20;100911.22;5052682;28;997;-40
2022/09/09 10:26:57;;;;;;;;;;;;;;;29.51;33.26;100916.47;5059445;28;1973;-40
2022/09/09 10:29:29;;;;;;;;;;;;;;;29.61;32.94;100916.19;5054459;28;1083;-40
2022/09/09 10:32:09;;;;;;;;;;;;;;;29.41;33.27;100911.38;5059761;28;1012;-42
2022/09/09 10:34:41;;;;;;;;;;;;;;;29.62;33.20;100917.84;5052828;28;1174;-40
2022/09/09 10:37:11;;;;;;;;;;;;;;;29.54;33.54;100916.09;5050960;28;993;-40
2022/09/09 10:39:37;;;;;;;;;;;;;;;29.64;33.28;100906.81;5049869;28;1144;-38
2022/09/09 10:42:04;;;;;;;;;;;;;;;29.91;33.18;100907.00;5055139;28;1222;-41
2022/09/09 10:44:34;;;;;;;;;;;;;;;30.00;32.90;100913.09;5053016;28;1210;-40
2022/09/09 10:47:18;;;;;;;;;;;;;;;30.04;33.07;100917.94;5049045;28;1893;-40
2022/09/09 10:50:01;;;;;;;;;;;;;;;29.98;33.13;100907.88;5057466;28;1410;-38
2022/09/09 10:52:38;;;;;;;;;;;;;;;30.06;32.88;100912.31;5054044;28;1127;-39
2022/09/09 10:55:19;;;;;;;;;;;;;;;30.02;32.98;100908.31;5044822;28;1343;-40
2022/09/09 10:57:45;;;;;;;;;;;;;;;30.16;33.03;100917.38;5046370;28;1001;-41
2022/09/09 11:00:30;;;;;;;;;;;;;;;30.18;33.15;100913.41;5055541;28;1178;-39
2022/09/09 11:02:56;;;;;;;;;;;;;;;30.25;32.91;100912.63;5042601;28;1181;-40
2022/09/09 11:05:23;;;;;;;;;;;;;;;30.21;32.99;100914.09;5058522;28;937;-43
2022/09/09 11:07:48;;;;;;;;;;;;;;;30.35;32.82;100921.25;5057666;28;1894;-40
2022/09/09 11:10:55;;;;;;;;;;;;;;;30.35;32.85;100909.56;5054406;28;1194;-40
2022/09/09 11:13:25;;;;;;;;;;;;;;;30.29;32.85;100908.50;4973878;28;1252;-40
2022/09/09 11:15:57;;;;;;;;;;;;;;;30.33;33.14;100915.19;4977248;28;1595;-40
2022/09/09 11:18:22;;;;;;;;;;;;;;;30.51;32.72;100905.69;5010814;28;1133;-40
2022/09/09 11:20:49;;;;;;;;;;;;;;;30.35;32.92;100902.25;5037834;28;1092;-40
2022/09/09 11:23:17;;;;;;;;;;;;;;;30.32;33.25;100910.81;5056531;28;877;-40
2022/09/09 11:25:43;;;;;;;;;;;;;;;30.35;33.15;100921.25;5049253;28;958;-38
2022/09/09 11:28:15;;;;;;;;;;;;;;;30.30;32.97;100908.31;5048398;28;1918;-39
2022/09/09 11:30:43;;;;;;;;;;;;;;;30.33;33.07;100909.75;5057478;28;989;-39
2022/09/09 11:33:27;;;;;;;;;;;;;;;30.34;32.98;100903.31;5058128;28;1254;-39
2022/09/09 11:36:11;;;;;;;;;;;;;;;30.31;32.98;100893.69;5054005;28;994;-40
2022/09/09 11:38:46;;;;;;;;;;;;;;;30.31;33.30;100887.44;5045410;28;1045;-41
2022/09/09 11:41:13;;;;;;;;;;;;;;;30.26;33.15;100901.59;5058130;28;1079;-40
2022/09/09 11:43:51;;;;;;;;;;;;;;;30.25;33.51;100907.22;5058378;28;1043;-41
2022/09/09 11:46:17;;;;;;;;;;;;;;;30.22;33.24;100900.31;5049519;28;1156;-40
2022/09/09 11:48:45;;;;;;;;;;;;;;;30.18;33.59;100899.84;5053552;28;1976;-40
2022/09/09 11:51:25;;;;;;;;;;;;;;;30.18;33.59;100897.13;5056102;28;1152;-40
2022/09/09 11:53:52;;;;;;;;;;;;;;;30.16;33.56;100891.06;5055660;28;1021;-40
2022/09/09 11:56:44;;;;;;;;;;;;;;;30.27;33.48;100886.16;5057757;28;965;-40
2022/09/09 11:59:18;;;;;;;;;;;;;;;30.19;33.55;100882.56;5048114;28;1543;-40
2022/09/09 12:01:43;;;;;;;;;;;;;;;30.17;33.52;100879.19;5057868;28;965;-40
2022/09/09 12:04:08;;;;;;;;;;;;;;;30.15;33.47;100888.56;5043648;28;1224;-42
2022/09/09 12:06:41;;;;;;;;;;;;;;;30.19;33.23;100887.13;5048739;28;1968;-40
2022/09/09 12:09:07;;;;;;;;;;;;;;;30.12;33.77;100888.97;5043752;28;1409;-40
2022/09/09 12:11:33;;;;;;;;;;;;;;;30.20;33.29;100888.81;5052238;28;827;-41
2022/09/09 12:14:00;;;;;;;;;;;;;;;29.00;30.53;100866.81;5055187;28;1190;-42
2022/09/09 12:16:30;;;;;;;;;;;;;;;29.36;30.35;100875.06;5057458;28;1001;-42
2022/09/09 12:19:03;;;;;;;;;;;;;;;29.72;32.42;100873.28;5043133;28;1198;-41
2022/09/09 12:21:40;;;;;;;;;;;;;;;29.91;32.48;100875.28;5055866;28;1009;-40
2022/09/09 12:24:09;;;;;;;;;;;;;;;29.99;32.45;100862.59;5056012;28;1143;-40
2022/09/09 12:26:39;;;;;;;;;;;;;;;30.01;32.69;100857.81;5056710;28;1968;-41
2022/09/09 12:29:23;;;;;;;;;;;;;;;30.01;32.84;100866.78;5057344;28;941;-40
2022/09/09 12:32:10;;;;;;;;;;;;;;;29.94;33.02;100863.22;5042203;28;1235;-40
2022/09/09 12:34:38;;;;;;;;;;;;;;;29.86;33.05;100861.50;5047078;28;1258;-43
2022/09/09 12:37:18;;;;;;;;;;;;;;;29.90;33.13;100859.22;5039965;28;1228;-41
2022/09/09 12:39:50;;;;;;;;;;;;;;;29.98;33.37;100866.38;5048659;28;1100;-40
2022/09/09 12:42:16;;;;;;;;;;;;;;;30.04;33.23;100858.28;5038245;28;1316;-41
2022/09/09 12:44:50;;;;;;;;;;;;;;;29.96;32.64;100860.28;5046005;28;1155;-42
2022/09/09 12:47:15;;;;;;;;;;;;;;;29.94;33.40;100852.38;5056408;28;1898;-40
2022/09/09 12:49:41;;;;;;;;;;;;;;;29.85;32.37;100854.38;5043168;28;966;-40
2022/09/09 12:52:26;;;;;;;;;;;;;;;29.95;33.23;100856.75;5056962;28;965;-42
2022/09/09 12:54:53;;;;;;;;;;;;;;;29.89;33.45;100852.97;5056678;28;1039;-40
2022/09/09 12:57:18;;;;;;;;;;;;;;;29.91;33.70;100859.00;5043333;28;979;-41